Estación de Longaví Norte

Ultimos registro cada 15 minutos 74
Estación Fecha / Hora Temperatura Humedad Lluvia Velocidad Dirección Radiación Presion
74 Longaví Norte 02-09-2026 18:15 12,4 96,5 0 0 94 9,4 1003
73 Longaví Norte 02-09-2026 18:00 12,8 95,4 0 0 94 23,1 1002,8
72 Longaví Norte 02-09-2026 17:45 13 94,6 0 0 94 36,9 1002,7
71 Longaví Norte 02-09-2026 17:30 13,2 94,4 0 0,3 100 83,1 1002,5
70 Longaví Norte 02-09-2026 17:15 13,2 94,7 0 0 121 110,6 1002,1
69 Longaví Norte 02-09-2026 17:00 13,1 95,2 0 0,3 125 113,1 1001,9
68 Longaví Norte 02-09-2026 16:45 13,1 94,3 0 0,3 154 121,9 1002
67 Longaví Norte 02-09-2026 16:30 12,8 96,3 0 0,7 183 199,4 1002,2
66 Longaví Norte 02-09-2026 16:15 12,4 95,8 0 0,3 187 58,1 1002,3
65 Longaví Norte 02-09-2026 16:00 12,5 95,6 0 0,7 173 56,9 1002
64 Longaví Norte 02-09-2026 15:45 12,6 95,9 0,2 0,3 107 98,1 1001,6
63 Longaví Norte 02-09-2026 15:30 12,4 95,8 0 0,3 104 96,9 1001,9
62 Longaví Norte 02-09-2026 15:15 12,4 95,2 0 0,3 102 66,9 1001,6
61 Longaví Norte 02-09-2026 15:00 12,6 94 0 0 79 60,6 1001,6
60 Longaví Norte 02-09-2026 14:45 12,7 93,7 0 0,3 49 81,9 1001,6
59 Longaví Norte 02-09-2026 14:30 12,5 94,5 0 0,7 55 101,9 1001,4
58 Longaví Norte 02-09-2026 14:15 12,3 94,7 0 0,7 51 119,4 1001,3
57 Longaví Norte 02-09-2026 14:00 12,2 95,1 0 1 66 131,9 1001,4
56 Longaví Norte 02-09-2026 13:45 12,2 96 0 1 48 109,4 1001,5
55 Longaví Norte 02-09-2026 13:30 12 95,5 0 0,7 44 155,6 1001,4
54 Longaví Norte 02-09-2026 13:15 11,8 95,6 0,8 0,7 29 174,4 1001,5
53 Longaví Norte 02-09-2026 13:00 11,5 95,4 0,2 0,7 38 79,4 1001,8
52 Longaví Norte 02-09-2026 12:45 11,6 96,7 0 0,3 53 61,9 1001,9
51 Longaví Norte 02-09-2026 12:30 11,5 96,3 0 0,7 77 76,9 1001,8
50 Longaví Norte 02-09-2026 12:15 11,6 96,5 0 0,3 66 93,1 1002
49 Longaví Norte 02-09-2026 12:00 11,8 96,1 0,2 0,3 126 94,4 1002
48 Longaví Norte 02-09-2026 11:45 11,6 96,3 0 0,3 178 76,9 1002,2
47 Longaví Norte 02-09-2026 11:30 11,6 95,1 0 0,3 147 94,4 1002,2
46 Longaví Norte 02-09-2026 11:15 11,7 95,2 0 0,3 194 110,6 1002
45 Longaví Norte 02-09-2026 11:00 11,4 95,9 0 0,7 206 116,9 1001,9
44 Longaví Norte 02-09-2026 10:45 11,3 96,4 0,2 0,7 237 73,1 1001,8
43 Longaví Norte 02-09-2026 10:30 11,2 96,4 0,2 0,7 241 58,1 1001,7
42 Longaví Norte 02-09-2026 10:15 11,2 96,4 0,6 0,3 278 93,1 1001,4
41 Longaví Norte 02-09-2026 10:00 11,3 95,9 0 0,3 303 26,9 1001,5
40 Longaví Norte 02-09-2026 09:45 11,6 95,5 0,2 0,3 331 70,6 1001
39 Longaví Norte 02-09-2026 09:30 11,4 94,8 0,2 0,7 17 64,4 1000,9
38 Longaví Norte 02-09-2026 09:15 11,4 94 0,4 0,7 1 81,9 1000,7
37 Longaví Norte 02-09-2026 09:00 11,7 91,8 0 0,7 14 38,1 1000,6
36 Longaví Norte 02-09-2026 08:45 11,4 93,2 0 0,7 11 41,9 1000,2
35 Longaví Norte 02-09-2026 08:30 11,2 93,7 0 0,3 31 29,4 1000,3
34 Longaví Norte 02-09-2026 08:15 10,8 95,3 0 0 35 16,9 1000,1
33 Longaví Norte 02-09-2026 08:00 10,6 96,1 0 0,3 51 13,1 1000,1
32 Longaví Norte 02-09-2026 07:45 10,4 96,3 0 0 84 6,9 1000,4
31 Longaví Norte 02-09-2026 07:30 10,4 95,6 0 0 191 3,1 1000,5
30 Longaví Norte 02-09-2026 07:15 10,5 94,6 0 0,3 218 1,9 1000,7
29 Longaví Norte 02-09-2026 07:00 10,5 94,3 0 0,3 128 0,6 1000,2
28 Longaví Norte 02-09-2026 06:45 10,5 93,8 0 0 163 0,6 1000,8
27 Longaví Norte 02-09-2026 06:30 10,4 93,5 0 0,3 163 0,6 1000,6
26 Longaví Norte 02-09-2026 06:15 10,5 92,8 0 0,3 168 0,6 1000,9
25 Longaví Norte 02-09-2026 06:00 10,7 91,6 0 0,7 180 0,6 1000,8
24 Longaví Norte 02-09-2026 05:45 10,6 92,5 0 1 215 0,6 1000,9
23 Longaví Norte 02-09-2026 05:30 10,4 93,3 0 0,3 261 0,6 1000,6
22 Longaví Norte 02-09-2026 05:15 10,3 93,1 0 0,3 288 0,6 999,9
21 Longaví Norte 02-09-2026 05:00 10,2 93,1 0 0 350 0,6 999,4
20 Longaví Norte 02-09-2026 04:45 10,1 93,1 0 0 1 0,6 999
19 Longaví Norte 02-09-2026 04:30 10,1 93,2 0 0 1 0,6 999,1
18 Longaví Norte 02-09-2026 04:15 10,1 92,9 0 0 1 0,6 999
17 Longaví Norte 02-09-2026 04:00 10,1 92,9 0 0 1 0,6 999,2
16 Longaví Norte 02-09-2026 03:45 10 92,8 0 0 1 0,6 999,2
15 Longaví Norte 02-09-2026 03:30 10 92,2 0 0 337 0,6 999,1
14 Longaví Norte 02-09-2026 03:15 10,1 92,2 0 0 309 0,6 999,1
13 Longaví Norte 02-09-2026 03:00 10,4 90,7 0 0 309 0,6 999,7
12 Longaví Norte 02-09-2026 02:45 10,5 89,2 0 0 309 0,6 1000,2
11 Longaví Norte 02-09-2026 02:30 10,4 89,4 0 0 309 0,6 1000,4
10 Longaví Norte 02-09-2026 02:15 10,4 89,7 0 0 309 0,6 1000,3
9 Longaví Norte 02-09-2026 02:00 10,5 89,6 0 0 309 0,6 1000
8 Longaví Norte 02-09-2026 01:45 10,7 87,9 0 0 286 0,6 1000
7 Longaví Norte 02-09-2026 01:30 10,7 88,3 0 0 213 0,6 999,9
6 Longaví Norte 02-09-2026 01:15 10,6 88,9 0 0 213 0,6 999,9
5 Longaví Norte 02-09-2026 01:00 11 87,6 0 0 213 0,6 1000
4 Longaví Norte 02-09-2026 00:45 11,3 85,4 0 0 213 0,6 1000,4
3 Longaví Norte 02-09-2026 00:30 11,8 82,6 0 0,7 223 0,6 1000,4
2 Longaví Norte 02-09-2026 00:15 12,2 81,3 0 0,7 209 0,6 1000,5
1 Longaví Norte 02-09-2026 00:00 12,3 81,1 0 0,7 222 0,6 1000,6